createdAt,value
2023-03-01T00:02:11.045Z,103075.50
2023-03-01T00:05:15.486Z,103079.06
2023-03-01T00:08:18.324Z,103086.19
2023-03-01T00:11:23.860Z,103089.81
2023-03-01T00:14:26.778Z,103088.03
2023-03-01T00:17:29.913Z,103084.50
2023-03-01T00:20:34.493Z,103083.59
2023-03-01T00:23:38.954Z,103087.16
2023-03-01T00:26:42.070Z,103084.50
2023-03-01T00:29:45.010Z,103084.50
2023-03-01T00:32:47.905Z,103079.19
2023-03-01T00:35:52.504Z,103096.09
2023-03-01T00:38:55.853Z,103091.63
2023-03-01T00:41:58.855Z,103082.75
2023-03-01T00:45:01.776Z,103074.72
2023-03-01T00:48:06.139Z,103078.28
2023-03-01T00:51:12.305Z,103072.94
2023-03-01T00:54:15.225Z,103068.50
2023-03-01T00:57:18.159Z,103061.38
2023-03-01T01:00:22.314Z,103050.72
2023-03-01T01:03:25.864Z,103044.47
2023-03-01T01:06:32.266Z,103034.69
2023-03-01T01:09:35.383Z,103032.91
2023-03-01T01:12:38.398Z,103028.47
2023-03-01T01:15:42.153Z,103024.03
2023-03-01T01:18:45.276Z,103021.34
2023-03-01T01:21:50.043Z,103014.19
2023-03-01T01:24:52.911Z,103016.88
2023-03-01T01:27:55.826Z,103011.53
2023-03-01T01:30:59.004Z,103011.53
2023-03-01T01:34:04.568Z,103008.00
2023-03-01T01:37:09.222Z,103002.63
2023-03-01T01:40:13.276Z,102998.19
2023-03-01T01:43:22.374Z,103002.63
2023-03-01T01:46:31.242Z,103004.41
2023-03-01T01:49:39.033Z,103008.84
2023-03-01T01:52:44.250Z,103013.25
2023-03-01T01:55:51.240Z,103010.59
2023-03-01T01:58:55.112Z,103006.16
2023-03-01T02:02:01.483Z,102999.91
2023-03-01T02:05:12.513Z,103008.81
2023-03-01T02:08:20.399Z,103012.34
2023-03-01T02:11:23.931Z,103012.34
2023-03-01T02:14:27.472Z,103007.91
2023-03-01T02:17:30.738Z,103012.34
2023-03-01T02:20:41.050Z,103008.78
2023-03-01T02:23:45.608Z,103014.13
2023-03-01T02:26:54.041Z,103006.97
2023-03-01T02:29:58.384Z,103000.78
2023-03-01T02:33:05.518Z,103008.78
2023-03-01T02:36:12.513Z,103016.78
2023-03-01T02:39:18.901Z,103009.66
2023-03-01T02:42:27.255Z,103016.78
2023-03-01T02:45:31.823Z,103015.00
2023-03-01T02:48:44.277Z,103014.13
2023-03-01T02:51:56.835Z,103009.66
2023-03-01T02:55:05.244Z,103006.97
2023-03-01T02:58:09.063Z,103005.25
2023-03-01T03:01:16.079Z,103003.44
2023-03-01T03:04:22.050Z,102999.91
2023-03-01T03:07:26.352Z,102997.25
2023-03-01T03:10:31.410Z,102997.25
2023-03-01T03:13:34.711Z,102995.47
2023-03-01T03:16:39.067Z,102997.25
2023-03-01T03:19:42.034Z,102987.47
2023-03-01T03:22:45.009Z,102982.13
2023-03-01T03:25:50.490Z,102987.44
2023-03-01T03:28:53.464Z,102978.56
2023-03-01T03:31:57.937Z,102965.22
2023-03-01T03:35:00.889Z,102972.28
2023-03-01T03:38:07.699Z,102964.25
2023-03-01T03:41:10.620Z,102959.81
2023-03-01T03:44:13.898Z,102961.56
2023-03-01T03:47:18.152Z,102965.09
2023-03-01T03:50:21.046Z,102957.00
2023-03-01T03:53:26.932Z,102959.69
2023-03-01T03:56:30.208Z,102953.44
2023-03-01T03:59:33.505Z,102955.19
2023-03-01T04:02:37.781Z,102949.84
2023-03-01T04:05:42.311Z,102948.06
2023-03-01T04:08:45.165Z,102937.47
2023-03-01T04:11:48.102Z,102944.59
2023-03-01T04:14:51.007Z,102935.69
2023-03-01T04:17:56.841Z,102940.13
2023-03-01T04:20:59.706Z,102936.63
2023-03-01T04:24:04.630Z,102940.22
2023-03-01T04:27:07.529Z,102945.56
2023-03-01T04:30:11.982Z,102947.38
2023-03-01T04:33:16.246Z,102949.13
2023-03-01T04:36:20.949Z,102948.28
2023-03-01T04:39:23.838Z,102947.38
2023-03-01T04:42:26.765Z,102943.88
2023-03-01T04:45:29.817Z,102946.53
2023-03-01T04:48:34.744Z,102943.88
2023-03-01T04:51:37.750Z,102941.16
2023-03-01T04:54:40.657Z,102940.22
2023-03-01T04:57:43.924Z,102934.00
2023-03-01T05:00:46.825Z,102938.41
2023-03-01T05:03:52.997Z,102929.47
2023-03-01T05:06:56.994Z,102926.78
2023-03-01T05:09:59.874Z,102933.91
2023-03-01T05:13:03.377Z,102925.88
2023-03-01T05:16:12.288Z,102919.63
2023-03-01T05:19:17.179Z,102920.53
2023-03-01T05:22:20.256Z,102922.31
2023-03-01T05:25:23.434Z,102917.88
2023-03-01T05:28:26.584Z,102923.22
2023-03-01T05:31:31.984Z,102914.34
2023-03-01T05:34:38.040Z,102909.88
2023-03-01T05:37:44.799Z,102915.22
2023-03-01T05:40:49.860Z,102911.66
2023-03-01T05:43:52.702Z,102923.22
2023-03-01T05:46:56.309Z,102920.56
2023-03-01T05:50:01.267Z,102925.91
2023-03-01T05:53:08.694Z,102930.31
2023-03-01T05:56:11.798Z,102927.66
2023-03-01T05:59:17.259Z,102924.13
2023-03-01T06:02:20.175Z,102927.66
2023-03-01T06:05:25.330Z,102931.25
2023-03-01T06:08:28.777Z,102941.91
2023-03-01T06:11:31.696Z,102927.69
2023-03-01T06:14:34.890Z,102932.13
2023-03-01T06:17:39.225Z,102936.59
2023-03-01T06:20:43.546Z,102935.69
2023-03-01T06:23:46.798Z,102928.56
2023-03-01T06:26:49.674Z,102939.25
2023-03-01T06:29:52.801Z,102934.81
2023-03-01T06:33:02.145Z,102936.59
2023-03-01T06:36:07.180Z,102941.00
2023-03-01T06:39:10.149Z,102947.22
2023-03-01T06:42:13.237Z,102931.16
2023-03-01T06:45:16.258Z,102940.06
2023-03-01T06:48:19.330Z,102944.50
2023-03-01T06:51:23.597Z,102937.34
2023-03-01T06:54:26.734Z,102936.44
2023-03-01T06:57:29.846Z,102944.47
2023-03-01T07:00:33.476Z,102949.75
2023-03-01T07:03:36.522Z,102942.63
2023-03-01T07:06:40.870Z,102937.28
2023-03-01T07:09:43.794Z,102944.38
2023-03-01T07:12:47.413Z,102947.94
2023-03-01T07:15:50.428Z,102946.16
2023-03-01T07:18:53.397Z,102952.38
2023-03-01T07:21:57.835Z,102946.19
2023-03-01T07:25:00.746Z,102949.75
2023-03-01T07:28:03.813Z,102956.88
2023-03-01T07:31:08.344Z,102946.19
2023-03-01T07:34:11.701Z,102941.78
2023-03-01T07:37:16.050Z,102935.53
2023-03-01T07:40:19.407Z,102945.31
2023-03-01T07:43:22.446Z,102944.38
2023-03-01T07:46:25.397Z,102939.03
2023-03-01T07:49:28.457Z,102938.16
2023-03-01T07:52:32.773Z,102942.56
2023-03-01T07:55:35.702Z,102944.28
2023-03-01T07:58:39.550Z,102942.47
2023-03-01T08:01:42.466Z,102938.88
2023-03-01T08:04:45.394Z,102933.53
2023-03-01T08:07:49.993Z,102935.28
2023-03-01T08:10:52.904Z,102930.81
2023-03-01T08:13:55.863Z,102933.47
2023-03-01T08:16:58.971Z,102938.78
2023-03-01T08:20:01.985Z,102935.22
2023-03-01T08:23:06.255Z,102937.00
2023-03-01T08:26:11.170Z,102927.19
2023-03-01T08:29:14.202Z,102924.53
2023-03-01T08:32:17.282Z,102918.34
2023-03-01T08:35:22.190Z,102910.31
2023-03-01T08:38:26.406Z,102916.53
2023-03-01T08:41:29.743Z,102916.53
2023-03-01T08:44:32.691Z,102913.91
2023-03-01T08:47:35.673Z,102913.00
2023-03-01T08:50:38.901Z,102912.16
2023-03-01T08:53:44.074Z,102901.47
2023-03-01T08:56:47.179Z,102902.38
2023-03-01T08:59:50.319Z,102889.91
2023-03-01T09:02:53.210Z,102889.91
2023-03-01T09:06:02.766Z,102895.25
2023-03-01T09:09:07.833Z,102893.47
2023-03-01T09:12:10.766Z,102896.13
2023-03-01T09:15:13.673Z,102891.66
2023-03-01T09:18:16.503Z,102893.41
2023-03-01T09:21:37.185Z,102886.25
2023-03-01T09:24:43.873Z,102888.00
2023-03-01T09:27:46.883Z,102899.56
2023-03-01T09:30:49.814Z,102900.44
2023-03-01T09:33:54.609Z,102890.66
2023-03-01T09:37:00.989Z,102886.16
2023-03-01T09:40:06.801Z,102877.25
2023-03-01T09:43:20.665Z,102887.94
2023-03-01T09:46:25.787Z,102882.59
2023-03-01T09:49:31.816Z,102875.47
2023-03-01T09:52:41.697Z,102886.16
2023-03-01T09:55:50.433Z,102876.34
2023-03-01T09:58:58.858Z,102877.25
2023-03-01T10:02:13.434Z,102873.69
2023-03-01T10:05:33.594Z,102878.09
2023-03-01T10:08:42.726Z,102878.09
2023-03-01T10:11:50.717Z,102871.91
2023-03-01T10:15:00.926Z,102867.47
2023-03-01T10:18:08.600Z,102870.13
2023-03-01T10:21:17.889Z,102863.91
2023-03-01T10:24:22.731Z,102855.91
2023-03-01T10:27:28.455Z,102863.91
2023-03-01T10:30:36.995Z,102854.13
2023-03-01T10:33:41.291Z,102848.78
2023-03-01T10:36:45.804Z,102857.72
2023-03-01T10:40:00.397Z,102847.09
2023-03-01T10:43:07.020Z,102844.44
2023-03-01T10:46:25.143Z,102843.53
2023-03-01T10:49:28.342Z,102835.50
2023-03-01T10:52:37.078Z,102829.34
2023-03-01T10:55:41.871Z,102830.22
2023-03-01T10:59:01.593Z,102835.56
2023-03-01T11:02:25.088Z,102832.84
2023-03-01T11:05:31.350Z,102839.94
2023-03-01T11:08:40.717Z,102831.91
2023-03-01T11:11:44.356Z,102823.84
2023-03-01T11:14:54.628Z,102828.28
2023-03-01T11:18:12.621Z,102818.50
2023-03-01T11:21:17.728Z,102817.59
2023-03-01T11:24:21.804Z,102826.50
2023-03-01T11:27:28.430Z,102818.50
2023-03-01T11:30:38.401Z,102820.28
2023-03-01T11:33:46.779Z,102821.16
2023-03-01T11:36:54.853Z,102819.41
2023-03-01T11:40:05.833Z,102809.59
2023-03-01T11:43:19.226Z,102805.16
2023-03-01T11:46:53.467Z,102801.59
2023-03-01T11:50:17.394Z,102791.84
2023-03-01T11:53:38.624Z,102792.84
2023-03-01T11:56:48.504Z,102794.66
2023-03-01T12:00:08.972Z,102800.00
2023-03-01T12:03:44.584Z,102797.38
2023-03-01T12:06:58.245Z,102786.75
2023-03-01T12:10:19.982Z,102784.97
2023-03-01T12:13:39.512Z,102784.97
2023-03-01T12:17:05.787Z,102785.88
2023-03-01T12:20:30.179Z,102783.25
2023-03-01T12:24:00.180Z,102779.63
2023-03-01T12:27:17.172Z,102775.22
2023-03-01T12:30:33.021Z,102769.84
2023-03-01T12:33:47.142Z,102775.13
2023-03-01T12:37:03.708Z,102758.22
2023-03-01T12:40:25.413Z,102743.06
2023-03-01T12:43:42.202Z,102745.72
2023-03-01T12:46:57.131Z,102737.72
2023-03-01T12:50:04.532Z,102735.03
2023-03-01T12:53:22.004Z,102734.16
2023-03-01T12:56:29.380Z,102731.47
2023-03-01T12:59:39.160Z,102730.59
2023-03-01T13:02:50.069Z,102727.91
2023-03-01T13:06:04.443Z,102720.78
2023-03-01T13:09:22.186Z,102727.91
2023-03-01T13:12:44.386Z,102715.47
2023-03-01T13:15:48.785Z,102719.00
2023-03-01T13:18:51.795Z,102708.31
2023-03-01T13:21:56.275Z,102703.00
2023-03-01T13:25:17.319Z,102697.66
2023-03-01T13:28:48.424Z,102692.31
2023-03-01T13:32:05.496Z,102692.31
2023-03-01T13:35:45.363Z,102691.41
2023-03-01T13:38:49.842Z,102686.09
2023-03-01T13:41:55.695Z,102685.19
2023-03-01T13:44:59.249Z,102674.53
2023-03-01T13:48:10.317Z,102681.63
2023-03-01T13:51:14.563Z,102675.41
2023-03-01T13:54:21.357Z,102670.94
2023-03-01T13:57:31.851Z,102667.34
2023-03-01T14:00:37.442Z,102669.13
2023-03-01T14:03:43.876Z,102670.00
2023-03-01T14:06:46.828Z,102668.19
2023-03-01T14:09:53.176Z,102660.16
2023-03-01T14:13:16.108Z,102650.38
2023-03-01T14:16:31.746Z,102656.59
2023-03-01T14:19:35.869Z,102644.16
2023-03-01T14:22:42.203Z,102646.81
2023-03-01T14:25:50.872Z,102640.63
2023-03-01T14:28:56.489Z,102645.97
2023-03-01T14:32:11.108Z,102640.66
2023-03-01T14:35:25.137Z,102633.56
2023-03-01T14:38:35.654Z,102636.25
2023-03-01T14:41:38.824Z,102633.59
2023-03-01T14:44:45.388Z,102630.06
2023-03-01T14:47:49.579Z,102633.63
2023-03-01T14:50:53.087Z,102625.63
2023-03-01T14:53:56.258Z,102624.72
2023-03-01T14:57:02.118Z,102620.28
2023-03-01T15:00:09.513Z,102617.63
2023-03-01T15:03:21.564Z,102618.44
2023-03-01T15:06:25.652Z,102622.88
2023-03-01T15:09:28.686Z,102622.88
2023-03-01T15:12:39.982Z,102623.72
2023-03-01T15:15:47.511Z,102612.09
2023-03-01T15:18:53.117Z,102615.66
2023-03-01T15:21:56.438Z,102612.03
2023-03-01T15:24:59.533Z,102610.28
2023-03-01T15:28:04.038Z,102619.13
2023-03-01T15:31:20.515Z,102610.25
2023-03-01T15:34:26.246Z,102614.72
2023-03-01T15:37:42.740Z,102608.44
2023-03-01T15:40:51.504Z,102608.44
2023-03-01T15:43:56.583Z,102603.97
2023-03-01T15:47:01.053Z,102604.88
2023-03-01T15:50:04.553Z,102593.28
2023-03-01T15:53:12.194Z,102595.94
2023-03-01T15:56:15.268Z,102595.00
2023-03-01T15:59:19.371Z,102594.16
2023-03-01T16:02:24.523Z,102594.16
2023-03-01T16:05:29.503Z,102603.06
2023-03-01T16:08:32.503Z,102590.63
2023-03-01T16:11:37.630Z,102585.28
2023-03-01T16:14:40.572Z,102599.53
2023-03-01T16:17:44.831Z,102597.75
2023-03-01T16:20:49.261Z,102606.69
2023-03-01T16:23:53.222Z,102613.88
2023-03-01T16:26:56.264Z,102613.09
2023-03-01T16:29:59.237Z,102610.53
2023-03-01T16:33:19.242Z,102615.09
2023-03-01T16:36:30.150Z,102616.94
2023-03-01T16:39:33.135Z,102622.31
2023-03-01T16:42:36.717Z,102616.09
2023-03-01T16:45:45.892Z,102611.59
2023-03-01T16:48:50.896Z,102615.06
2023-03-01T16:51:55.799Z,102604.25
2023-03-01T16:54:58.777Z,102603.25
2023-03-01T16:58:01.807Z,102596.03
2023-03-01T17:01:10.036Z,102603.06
2023-03-01T17:04:15.453Z,102601.16
2023-03-01T17:07:18.500Z,102597.50
2023-03-01T17:10:21.590Z,102599.16
2023-03-01T17:13:25.432Z,102600.81
2023-03-01T17:16:28.403Z,102606.13
2023-03-01T17:19:32.981Z,102603.44
2023-03-01T17:22:36.011Z,102601.59
2023-03-01T17:25:45.179Z,102604.25
2023-03-01T17:28:51.748Z,102601.53
2023-03-01T17:31:55.731Z,102606.00
2023-03-01T17:35:00.173Z,102603.38
2023-03-01T17:38:03.015Z,102610.50
2023-03-01T17:41:06.524Z,102607.91
2023-03-01T17:44:09.455Z,102608.00
2023-03-01T17:47:12.701Z,102606.34
2023-03-01T17:50:17.686Z,102608.19
2023-03-01T17:53:20.624Z,102610.06
2023-03-01T17:56:23.768Z,102611.06
2023-03-01T17:59:31.097Z,102619.13
2023-03-01T18:02:34.102Z,102608.53
2023-03-01T18:05:38.996Z,102617.50
2023-03-01T18:08:42.268Z,102620.22
2023-03-01T18:11:46.905Z,102620.22
2023-03-01T18:14:53.499Z,102619.34
2023-03-01T18:17:56.395Z,102621.22
2023-03-01T18:21:01.892Z,102624.88
2023-03-01T18:24:05.154Z,102626.69
2023-03-01T18:27:08.432Z,102633.84
2023-03-01T18:30:13.191Z,102633.91
2023-03-01T18:33:16.159Z,102636.63
2023-03-01T18:36:25.407Z,102622.44
2023-03-01T18:39:28.501Z,102625.16
2023-03-01T18:42:31.564Z,102631.38
2023-03-01T18:45:34.631Z,102639.44
2023-03-01T18:48:38.011Z,102633.22
2023-03-01T18:51:43.631Z,102631.44
2023-03-01T18:54:46.729Z,102631.44
2023-03-01T18:57:49.748Z,102637.72
2023-03-01T19:00:52.780Z,102637.72
2023-03-01T19:03:56.624Z,102650.13
2023-03-01T19:07:02.161Z,102644.78
2023-03-01T19:10:05.903Z,102644.78
2023-03-01T19:13:08.942Z,102656.28
2023-03-01T19:16:14.574Z,102647.41
2023-03-01T19:19:17.522Z,102654.53
2023-03-01T19:22:21.916Z,102650.06
2023-03-01T19:25:25.451Z,102637.63
2023-03-01T19:28:28.502Z,102643.91
2023-03-01T19:31:32.340Z,102654.56
2023-03-01T19:34:37.179Z,102652.78
2023-03-01T19:37:41.483Z,102655.50
2023-03-01T19:40:44.452Z,102657.28
2023-03-01T19:43:48.023Z,102656.41
2023-03-01T19:46:52.172Z,102651.94
2023-03-01T19:49:55.164Z,102648.38
2023-03-01T19:52:59.539Z,102646.59
2023-03-01T19:56:03.322Z,102646.59
2023-03-01T19:59:06.957Z,102646.59
2023-03-01T20:02:12.208Z,102646.59
2023-03-01T20:05:15.181Z,102647.50
2023-03-01T20:08:19.695Z,102650.19
2023-03-01T20:11:22.775Z,102645.78
2023-03-01T20:14:25.813Z,102647.56
2023-03-01T20:17:29.295Z,102644.88
2023-03-01T20:20:32.451Z,102636.94
2023-03-01T20:23:37.073Z,102644.94
2023-03-01T20:26:41.018Z,102642.25
2023-03-01T20:29:45.842Z,102646.66
2023-03-01T20:32:48.835Z,102642.22
2023-03-01T20:35:51.881Z,102644.84
2023-03-01T20:38:56.549Z,102640.44
2023-03-01T20:41:59.507Z,102640.44
2023-03-01T20:45:02.525Z,102646.66
2023-03-01T20:48:05.820Z,102644.94
2023-03-01T20:51:09.461Z,102632.44
2023-03-01T20:54:13.799Z,102632.44
2023-03-01T20:57:16.704Z,102629.81
2023-03-01T21:00:20.265Z,102632.44
2023-03-01T21:03:23.240Z,102630.66
2023-03-01T21:06:26.211Z,102642.25
2023-03-01T21:09:30.891Z,102643.16
2023-03-01T21:12:34.020Z,102650.28
2023-03-01T21:15:37.605Z,102654.69
2023-03-01T21:18:42.001Z,102654.63
2023-03-01T21:21:45.349Z,102651.13
2023-03-01T21:24:51.022Z,102653.78
2023-03-01T21:27:54.021Z,102647.56
2023-03-01T21:30:57.001Z,102653.78
2023-03-01T21:34:01.838Z,102652.94
2023-03-01T21:37:06.019Z,102645.00
2023-03-01T21:40:11.740Z,102651.22
2023-03-01T21:43:14.656Z,102648.44
2023-03-01T21:46:20.823Z,102654.69
2023-03-01T21:49:23.859Z,102644.94
2023-03-01T21:52:26.843Z,102648.50
2023-03-01T21:55:31.050Z,102650.28
2023-03-01T21:58:33.997Z,102645.78
2023-03-01T22:01:37.053Z,102644.00
2023-03-01T22:04:40.027Z,102643.09
2023-03-01T22:07:42.973Z,102648.44
2023-03-01T22:10:47.265Z,102643.94
2023-03-01T22:13:52.692Z,102640.44
2023-03-01T22:16:55.805Z,102640.38
2023-03-01T22:19:59.025Z,102636.81
2023-03-01T22:23:02.209Z,102643.94
2023-03-01T22:26:06.797Z,102642.16
2023-03-01T22:29:11.595Z,102637.75
2023-03-01T22:32:14.635Z,102634.25
2023-03-01T22:35:17.844Z,102636.00
2023-03-01T22:38:20.723Z,102636.00
2023-03-01T22:41:25.097Z,102641.31
2023-03-01T22:44:28.011Z,102636.09
2023-03-01T22:47:30.904Z,102631.59
2023-03-01T22:50:34.149Z,102630.66
2023-03-01T22:53:37.090Z,102630.66
2023-03-01T22:56:43.068Z,102631.50
2023-03-01T22:59:45.983Z,102627.94
2023-03-01T23:02:49.036Z,102627.03
2023-03-01T23:05:52.129Z,102624.41
2023-03-01T23:08:57.033Z,102634.16
2023-03-01T23:12:06.518Z,102624.47
2023-03-01T23:15:11.184Z,102619.19
2023-03-01T23:18:14.548Z,102619.19
2023-03-01T23:21:19.525Z,102612.06
2023-03-01T23:24:25.835Z,102614.72
2023-03-01T23:27:30.602Z,102615.59
2023-03-01T23:30:33.608Z,102617.41
2023-03-01T23:33:38.777Z,102608.50
2023-03-01T23:36:45.263Z,102613.81
2023-03-01T23:39:48.252Z,102614.72
2023-03-01T23:42:52.600Z,102624.47
2023-03-01T23:45:55.603Z,102623.56
2023-03-01T23:48:59.079Z,102616.41
2023-03-01T23:52:02.438Z,102616.47
2023-03-01T23:55:08.474Z,102606.78
2023-03-01T23:58:13.311Z,102616.63
